Aérodrome :
LOGIN :

S'inscrire | Disclaimer

   EN    FR    IT 

 










Légende :    VFR   VFR Marginal   IFR   IFR Intensif   IFR Très Intensif
Visi : 
Plafond : 
>= 8 km
>= 3000ft
5 à 8 km
1000 à 3000 ft
1500m à 5 km
500 à 1000 ft
800 à 1500m
200 à 500 ft
< 800m
< 200 ft
Symboles :   Orages  Brouillard  Fortes neiges  Fortes précipitations  Vent > 20 kt
SIGMETs :   Divers  Orages  Givrage  Turbulence  Onde Orograph.  Cendres Volcan.






- Altitude de l'aérodrome : 870 ft
- Code IATA : ETZ


LFJL - Metz Nancy Lorraine

DERNIER METAR :
  • 272130Z AUTO 29020KT 9999 BKN015 BKN021 OVC028 03/01 Q1011 TEMPO BKN006 BECMG 27010KT

METARs EXPIRÉS :
  • 272100Z AUTO 29017KT 9999 BKN014 BKN020 OVC025 03/01 Q1010 BECMG OVC025
  • 272030Z AUTO 29019KT 9999 OVC017 03/01 Q1009 NOSIG
  • 272000Z AUTO 30022KT 9999 BKN022 OVC029 03/M00 Q1007 BECMG 27010KT
  • 271930Z AUTO 30024KT 9999 OVC020 03/M00 Q1006 BECMG 27010KT
  • 271900Z AUTO 29020KT 9999 OVC020 03/M00 Q1005 BECMG 28015G35KT

TAF AMD TAF LFJL
Valide du 27 à 21h jusqu'au 28 à 18h UTC


272113Z 2721/2818 28015G35KT 9999 OVC025
BECMG 2721/2724 27010KT
PROB40
TEMPO 2721/2802 BKN006



MET'MAP, la Météo Aéronautique d'un coup d'oeil ! - Copyright ORBIFLY Décembre 2007 - Disclaimer

ORBIFLY MET'MAP TEAM :

Programmation & Développement : Alexandra Zaïnal
Sur une idée originale de : Baudouin d'Aumeries
Assistance à la programmation : Marc-Olivier Méhu
Soutien technique & logistique : Manuel Goepfert

Contact : metmap@orbifly.com




SOURCES & CREDITS :

   NOAA